Eleroy, Illinois
Current Conditions -  °F | °C
As of 7:35 PM on Tuesday 25 Nov 2014 (Local Time) from KFEP Reporting Station
Clear Clear  
Wind Chill:   Ceiling: Unl
Heat Index: 13°   Visibility: 10mi
Dew Point: 10°   Wind: 5mph
Humidity: 89%   Direction: 210°SSW
Pressure: 30.16"   Gusts: NA
Location:  42.33°N, 89.76°W
Report Text: KFEP 260135Z AUTO 21004KT 10SM CLR M11/M12 A3016 RMK AO2 T11081123
Loading
Personal Weather Stations






























Interactive Weather Map New forecast layout! Learn more

10-Day Weather Forecast

Advertisements
Track Severe Weather on mobile